Time;durP1;ratioP1;P1;durP2;ratioP2;P2;SDS_P1;SDS_P2;PMS_P1;PMS_P2;Temp;Humidity;BMP_temperature;BMP_pressure;BME280_temperature;BME280_humidity;BME280_pressure;Samples;Min_cycle;Max_cycle;Signal;HPM_P1;HPM_P2
2022/09/16 00:00:29;;;;;;;0.68;0.43;;;15.20;73.20;;;;;;5090413;28;20061;-69
2022/09/16 00:02:56;;;;;;;0.50;0.50;;;15.10;73.20;;;;;;5091489;28;20200;-69
2022/09/16 00:05:21;;;;;;;1.58;0.70;;;15.10;73.30;;;;;;5092295;28;20020;-70
2022/09/16 00:07:47;;;;;;;0.45;0.40;;;15.20;73.50;;;;;;5093320;28;20058;-70
2022/09/16 00:10:13;;;;;;;0.30;0.30;;;15.20;73.60;;;;;;5094778;28;20071;-70
2022/09/16 00:12:40;;;;;;;1.85;0.30;;;15.20;73.60;;;;;;5091135;28;20505;-70
2022/09/16 00:15:06;;;;;;;1.60;0.90;;;15.20;73.70;;;;;;5094600;28;20047;-70
2022/09/16 00:17:33;;;;;;;1.35;0.45;;;15.20;73.80;;;;;;5091153;28;20060;-71
2022/09/16 00:19:59;;;;;;;0.45;0.45;;;15.20;73.80;;;;;;5092071;28;20123;-70
2022/09/16 00:22:27;;;;;;;2.50;0.50;;;15.20;73.80;;;;;;5091701;28;20115;-71
2022/09/16 00:24:53;;;;;;;8.68;0.75;;;15.20;73.80;;;;;;5101535;28;20024;-69
2022/09/16 00:27:19;;;;;;;2.47;0.73;;;15.10;73.90;;;;;;5091934;28;20479;-70
2022/09/16 00:29:44;;;;;;;1.42;0.65;;;15.10;73.90;;;;;;5090738;28;20031;-70
2022/09/16 00:32:11;;;;;;;0.35;0.30;;;15.10;73.90;;;;;;5090258;28;20073;-70
2022/09/16 00:34:37;;;;;;;0.50;0.50;;;15.10;73.80;;;;;;5090657;28;20386;-65
2022/09/16 00:37:03;;;;;;;0.82;0.40;;;15.20;73.80;;;;;;5081303;28;20021;-66
2022/09/16 00:39:29;;;;;;;0.35;0.35;;;15.20;73.70;;;;;;5084986;28;20028;-65
2022/09/16 00:41:55;;;;;;;1.23;0.43;;;15.30;73.60;;;;;;5090220;28;20326;-65
2022/09/16 00:44:53;;;;;;;0.30;0.30;;;15.30;73.50;;;;;;5091922;28;20040;-65
2022/09/16 00:47:24;;;;;;;0.85;0.57;;;15.30;73.40;;;;;;5091637;28;20409;-71
2022/09/16 00:49:51;;;;;;;0.60;0.47;;;15.30;73.50;;;;;;5091315;28;20829;-70
2022/09/16 00:52:18;;;;;;;0.38;0.30;;;15.30;73.40;;;;;;5088247;28;20060;-71
2022/09/16 00:54:44;;;;;;;0.45;0.45;;;15.40;73.30;;;;;;5091989;28;20028;-70
2022/09/16 00:57:12;;;;;;;1.50;0.40;;;15.40;73.30;;;;;;5090005;28;20562;-70
2022/09/16 00:59:41;;;;;;;0.40;0.40;;;15.40;73.40;;;;;;5091222;28;20386;-70
2022/09/16 01:02:12;;;;;;;0.38;0.30;;;15.40;73.40;;;;;;5090146;28;20069;-70
2022/09/16 01:04:59;;;;;;;2.70;0.50;;;15.30;73.60;;;;;;5090406;28;20043;-70
2022/09/16 01:07:42;;;;;;;0.85;0.30;;;15.30;73.80;;;;;;5077962;28;20348;-70
2022/09/16 01:10:09;;;;;;;1.90;0.82;;;15.30;73.90;;;;;;5091325;28;20403;-70
2022/09/16 01:12:36;;;;;;;0.35;0.32;;;15.30;74.10;;;;;;5090897;28;20035;-70
2022/09/16 01:15:03;;;;;;;0.70;0.60;;;15.40;74.10;;;;;;5090149;28;20025;-70
2022/09/16 01:17:50;;;;;;;3.13;0.60;;;15.40;74.10;;;;;;5074925;28;20024;-66
2022/09/16 01:20:57;;;;;;;0.88;0.60;;;15.40;74.10;;;;;;5089987;28;20432;-66
2022/09/16 01:23:32;;;;;;;4.22;0.50;;;15.30;74.30;;;;;;5071499;28;20423;-65
2022/09/16 01:26:29;;;;;;;2.08;0.85;;;15.30;74.30;;;;;;5090232;28;20441;-65
2022/09/16 01:29:16;;;;;;;1.95;0.52;;;15.30;74.50;;;;;;5090734;28;20048;-65
2022/09/16 01:32:03;;;;;;;0.30;0.30;;;15.30;74.70;;;;;;5078225;28;20055;-66
2022/09/16 01:34:47;;;;;;;2.90;0.50;;;15.20;74.80;;;;;;5091928;28;20024;-65
2022/09/16 01:37:19;;;;;;;0.32;0.32;;;15.10;75.00;;;;;;5079747;28;20028;-65
2022/09/16 01:39:45;;;;;;;0.40;0.40;;;15.00;75.20;;;;;;5092006;28;20028;-70
2022/09/16 01:42:25;;;;;;;0.85;0.50;;;15.00;75.20;;;;;;5090748;28;20027;-70
2022/09/16 01:45:00;;;;;;;0.65;0.50;;;15.10;75.30;;;;;;5090707;28;20016;-65
2022/09/16 01:48:00;;;;;;;0.63;0.35;;;15.10;75.20;;;;;;5094885;28;20047;-70
2022/09/16 01:50:44;;;;;;;0.93;0.68;;;15.10;75.90;;;;;;5075938;28;20613;-70
2022/09/16 01:53:50;;;;;;;0.73;0.40;;;15.10;75.20;;;;;;5090677;28;20390;-70
2022/09/16 01:56:25;;;;;;;2.25;0.55;;;15.10;75.20;;;;;;5089478;28;20478;-70
2022/09/16 01:59:03;;;;;;;0.90;0.60;;;15.10;75.30;;;;;;5076556;28;20020;-70
2022/09/16 02:01:47;;;;;;;0.22;0.22;;;15.10;75.30;;;;;;5083041;28;20413;-70
2022/09/16 02:04:36;;;;;;;1.58;0.85;;;15.10;75.40;;;;;;5090542;28;20058;-70
2022/09/16 02:07:04;;;;;;;2.92;0.70;;;15.10;75.50;;;;;;5087357;28;20576;-65
2022/09/16 02:09:38;;;;;;;0.32;0.30;;;15.00;75.60;;;;;;5089621;28;20024;-65
2022/09/16 02:12:08;;;;;;;1.60;0.45;;;15.00;75.80;;;;;;5089179;28;20024;-65
2022/09/16 02:14:40;;;;;;;1.52;0.85;;;15.00;75.80;;;;;;5090894;28;20099;-69
2022/09/16 02:17:16;;;;;;;0.52;0.38;;;14.90;75.60;;;;;;5090010;28;20406;-70
2022/09/16 02:19:48;;;;;;;1.88;0.73;;;15.00;75.80;;;;;;5089784;28;20021;-70
2022/09/16 02:22:25;;;;;;;0.63;0.43;;;14.90;75.90;;;;;;5099517;28;20709;-70
2022/09/16 02:24:52;;;;;;;0.50;0.43;;;14.90;75.90;;;;;;5095469;28;20030;-66
2022/09/16 02:27:20;;;;;;;0.98;0.50;;;15.00;76.00;;;;;;5088498;28;20047;-65
2022/09/16 02:29:52;;;;;;;1.65;0.52;;;14.90;76.10;;;;;;5089942;28;20028;-65
2022/09/16 02:32:21;;;;;;;1.88;0.43;;;14.80;76.30;;;;;;5081387;28;20570;-65
2022/09/16 02:34:50;;;;;;;0.30;0.30;;;14.80;76.60;;;;;;5082625;28;20051;-66
2022/09/16 02:37:28;;;;;;;1.92;0.55;;;14.80;76.60;;;;;;5074451;28;20028;-66
2022/09/16 02:40:00;;;;;;;0.98;0.45;;;14.80;76.60;;;;;;5089320;28;20024;-70
2022/09/16 02:42:29;;;;;;;0.40;0.40;;;14.70;76.60;;;;;;5087104;28;20115;-70
2022/09/16 02:44:56;;;;;;;1.90;0.70;;;14.70;76.70;;;;;;5087304;28;20043;-70
2022/09/16 02:47:29;;;;;;;2.97;0.88;;;14.70;76.70;;;;;;5087164;28;20070;-70
2022/09/16 02:49:56;;;;;;;3.75;0.45;;;14.70;76.80;;;;;;5092122;28;20479;-70
2022/09/16 02:52:45;;;;;;;0.43;0.43;;;14.70;76.70;;;;;;5087493;28;20035;-69
2022/09/16 02:55:50;;;;;;;1.05;0.40;;;14.70;76.60;;;;;;5089203;28;20021;-69
2022/09/16 02:58:15;;;;;;;0.43;0.43;;;14.70;76.60;;;;;;5084342;28;20095;-70
2022/09/16 03:00:47;;;;;;;1.20;0.90;;;14.60;76.70;;;;;;5095373;28;20505;-70
2022/09/16 03:03:13;;;;;;;0.35;0.35;;;14.60;76.60;;;;;;5094576;28;20098;-70
2022/09/16 03:06:07;;;;;;;1.23;0.63;;;14.60;76.70;;;;;;5086388;28;20024;-70
2022/09/16 03:08:34;;;;;;;1.67;0.82;;;14.70;76.70;;;;;;5088548;28;20032;-70
2022/09/16 03:11:16;;;;;;;0.40;0.40;;;14.50;77.20;;;;;;5087906;28;20773;-70
2022/09/16 03:14:18;;;;;;;1.60;0.65;;;14.50;77.30;;;;;;5089196;28;20024;-70
2022/09/16 03:16:59;;;;;;;1.90;0.40;;;14.50;77.30;;;;;;5096374;28;20027;-70
2022/09/16 03:19:49;;;;;;;0.30;0.30;;;14.50;77.40;;;;;;5076488;28;20111;-70
2022/09/16 03:22:27;;;;;;;5.90;0.70;;;14.50;77.20;;;;;;5086586;28;20032;-70
2022/09/16 03:25:17;;;;;;;0.70;0.47;;;14.50;77.10;;;;;;5083174;28;21233;-70
2022/09/16 03:27:51;;;;;;;0.90;0.47;;;14.60;77.00;;;;;;5081518;28;20035;-70
2022/09/16 03:30:18;;;;;;;0.20;0.20;;;14.60;76.90;;;;;;5089187;28;20059;-65
2022/09/16 03:32:57;;;;;;;0.45;0.30;;;14.70;76.80;;;;;;5087847;28;20058;-65
2022/09/16 03:35:30;;;;;;;1.85;0.70;;;14.60;76.60;;;;;;5088338;28;20482;-66
2022/09/16 03:37:59;;;;;;;1.48;0.40;;;14.70;76.70;;;;;;5087739;28;20031;-65
2022/09/16 03:40:28;;;;;;;1.30;0.30;;;14.70;76.70;;;;;;5073961;28;20084;-65
2022/09/16 03:42:56;;;;;;;0.20;0.20;;;14.60;76.60;;;;;;5074469;28;20020;-65
2022/09/16 03:45:22;;;;;;;0.63;0.40;;;14.60;76.60;;;;;;5076627;28;20552;-66
2022/09/16 03:47:50;;;;;;;3.28;0.60;;;14.60;76.60;;;;;;5087727;28;20024;-66
2022/09/16 03:50:16;;;;;;;3.28;0.82;;;14.70;76.60;;;;;;5071374;28;20028;-65
2022/09/16 03:52:42;;;;;;;0.20;0.20;;;14.60;76.50;;;;;;5084650;28;20024;-65
2022/09/16 03:55:09;;;;;;;0.93;0.60;;;14.60;76.60;;;;;;5069828;28;20078;-66
2022/09/16 03:57:35;;;;;;;0.80;0.73;;;14.60;76.70;;;;;;5085026;28;20441;-66
2022/09/16 04:00:02;;;;;;;3.30;0.60;;;14.60;76.90;;;;;;5070609;28;20020;-66
2022/09/16 04:02:27;;;;;;;1.55;0.85;;;14.50;76.90;;;;;;5072620;28;20527;-66
2022/09/16 04:04:53;;;;;;;0.90;0.77;;;14.50;77.00;;;;;;5066733;28;20107;-70
2022/09/16 04:07:19;;;;;;;0.28;0.20;;;14.50;76.90;;;;;;5066018;28;20035;-66
2022/09/16 04:09:44;;;;;;;0.20;0.20;;;14.50;76.80;;;;;;5084880;28;20502;-70
2022/09/16 04:12:10;;;;;;;0.57;0.55;;;14.60;76.80;;;;;;5068347;28;20055;-70
2022/09/16 04:14:36;;;;;;;3.20;0.40;;;14.60;76.80;;;;;;5078521;28;20024;-70
2022/09/16 04:17:02;;;;;;;0.70;0.40;;;14.60;76.80;;;;;;5071845;28;20039;-70
2022/09/16 04:19:28;;;;;;;0.50;0.15;;;14.60;76.90;;;;;;5082338;28;20062;-65
2022/09/16 04:21:53;;;;;;;1.60;0.57;;;14.60;77.00;;;;;;5089532;28;20040;-65
2022/09/16 04:24:19;;;;;;;2.45;0.43;;;14.50;77.10;;;;;;5089239;28;20085;-65
2022/09/16 04:26:45;;;;;;;2.05;0.52;;;14.50;77.40;;;;;;5090586;28;20032;-65
2022/09/16 04:29:11;;;;;;;0.95;0.50;;;14.50;77.40;;;;;;5075556;28;20037;-65
2022/09/16 04:31:36;;;;;;;3.15;0.45;;;14.50;77.40;;;;;;5087667;28;20107;-65
2022/09/16 04:34:03;;;;;;;0.30;0.30;;;14.50;77.40;;;;;;5083659;28;20020;-65
2022/09/16 04:36:30;;;;;;;0.20;0.20;;;14.50;77.30;;;;;;5071408;28;20387;-70
2022/09/16 04:38:55;;;;;;;0.73;0.20;;;14.50;77.40;;;;;;5089767;28;20508;-65
2022/09/16 04:41:23;;;;;;;0.50;0.50;;;14.50;77.50;;;;;;5102404;28;20027;-64
2022/09/16 04:43:56;;;;;;;0.70;0.55;;;14.50;77.50;;;;;;5092037;28;20383;-69
2022/09/16 04:46:24;;;;;;;1.75;0.60;;;14.50;77.50;;;;;;5090582;28;20103;-65
2022/09/16 04:48:51;;;;;;;4.78;0.93;;;14.60;77.50;;;;;;5085261;28;20036;-69
2022/09/16 04:51:18;;;;;;;0.80;0.40;;;14.60;77.30;;;;;;5087625;28;20076;-64
2022/09/16 04:53:45;;;;;;;9.23;0.70;;;14.60;77.20;;;;;;5086072;28;20102;-64
2022/09/16 04:56:20;;;;;;;0.40;0.40;;;14.60;77.10;;;;;;5089249;28;20024;-69
2022/09/16 04:58:49;;;;;;;1.05;0.30;;;14.60;77.10;;;;;;5089309;28;20479;-64
2022/09/16 05:01:17;;;;;;;0.35;0.35;;;14.60;77.60;;;;;;5086888;28;20551;-64
2022/09/16 05:03:45;;;;;;;0.50;0.25;;;14.60;76.90;;;;;;5084792;28;20033;-69
2022/09/16 05:06:14;;;;;;;0.50;0.50;;;14.60;76.90;;;;;;5078343;28;20028;-64
2022/09/16 05:08:40;;;;;;;1.77;0.55;;;14.60;77.00;;;;;;5082532;28;20499;-65
2022/09/16 05:11:11;;;;;;;0.63;0.45;;;14.60;77.00;;;;;;5082978;28;20047;-65
2022/09/16 05:13:37;;;;;;;1.53;0.80;;;14.60;77.00;;;;;;5076188;28;20037;-65
2022/09/16 05:16:06;;;;;;;0.80;0.50;;;14.60;77.00;;;;;;5078563;28;20047;-65
2022/09/16 05:18:32;;;;;;;1.05;0.70;;;14.60;77.00;;;;;;5077739;28;20029;-70
2022/09/16 05:20:59;;;;;;;0.30;0.30;;;14.60;77.00;;;;;;5071816;28;20040;-65
2022/09/16 05:23:25;;;;;;;0.20;0.20;;;14.60;77.00;;;;;;5087895;28;20457;-65
2022/09/16 05:25:52;;;;;;;1.58;0.47;;;14.60;76.90;;;;;;5090627;28;20029;-65
2022/09/16 05:28:17;;;;;;;0.28;0.28;;;14.50;76.90;;;;;;5063317;28;20370;-65
2022/09/16 05:30:43;;;;;;;1.20;0.75;;;14.50;77.00;;;;;;5072999;28;20429;-65
2022/09/16 05:33:09;;;;;;;0.90;0.68;;;14.40;76.90;;;;;;5077605;28;20052;-66
2022/09/16 05:35:34;;;;;;;1.15;0.40;;;14.40;76.90;;;;;;5073470;28;20063;-65
2022/09/16 05:38:00;;;;;;;0.80;0.40;;;14.40;76.90;;;;;;5076325;28;20027;-64
2022/09/16 05:40:26;;;;;;;0.50;0.50;;;14.40;76.90;;;;;;5089058;28;20050;-69
2022/09/16 05:42:52;;;;;;;0.22;0.20;;;14.40;76.90;;;;;;5087967;28;20040;-70
2022/09/16 05:45:18;;;;;;;1.10;0.68;;;14.40;76.90;;;;;;5070996;28;20032;-69
2022/09/16 05:47:47;;;;;;;0.52;0.40;;;14.30;76.90;;;;;;5088685;28;20119;-65
2022/09/16 05:50:13;;;;;;;0.57;0.50;;;14.30;77.00;;;;;;5093058;28;20047;-65
2022/09/16 05:52:39;;;;;;;0.30;0.30;;;14.30;77.00;;;;;;5088086;28;20033;-69
2022/09/16 05:55:05;;;;;;;4.50;0.70;;;14.30;77.00;;;;;;5089374;28;20107;-69
2022/09/16 05:57:31;;;;;;;0.30;0.30;;;14.30;77.00;;;;;;5098333;28;20029;-69
2022/09/16 05:59:56;;;;;;;1.20;0.50;;;14.20;76.90;;;;;;5078355;28;20496;-65
2022/09/16 06:02:22;;;;;;;0.50;0.50;;;14.30;76.90;;;;;;5078166;28;20032;-66
2022/09/16 06:04:48;;;;;;;0.28;0.28;;;14.30;76.90;;;;;;5090101;28;20038;-70
2022/09/16 06:07:13;;;;;;;0.90;0.25;;;14.30;77.40;;;;;;5087382;28;20040;-69
2022/09/16 06:09:40;;;;;;;0.95;0.50;;;14.30;76.70;;;;;;5088914;28;20540;-70
2022/09/16 06:12:06;;;;;;;1.10;0.38;;;14.40;76.60;;;;;;5083218;28;20379;-70
2022/09/16 06:14:31;;;;;;;1.75;0.45;;;14.40;76.50;;;;;;5082971;28;20054;-65
2022/09/16 06:16:57;;;;;;;1.60;0.50;;;14.40;76.40;;;;;;5084854;28;20332;-65
2022/09/16 06:19:23;;;;;;;0.50;0.40;;;14.40;76.20;;;;;;5085497;28;20093;-70
2022/09/16 06:21:48;;;;;;;0.57;0.32;;;14.50;76.20;;;;;;5086337;28;20475;-70
2022/09/16 06:24:16;;;;;;;0.30;0.30;;;14.50;76.10;;;;;;5077447;28;20036;-69
2022/09/16 06:26:44;;;;;;;0.50;0.50;;;14.60;76.00;;;;;;5102031;27;20027;-70
2022/09/16 06:29:10;;;;;;;0.20;0.20;;;14.60;75.80;;;;;;5073678;28;20021;-71
2022/09/16 06:31:37;;;;;;;1.25;0.45;;;14.70;75.70;;;;;;5084613;28;20115;-68
2022/09/16 06:34:04;;;;;;;0.17;0.17;;;14.70;75.50;;;;;;5093443;28;20045;-68
2022/09/16 06:36:32;;;;;;;1.52;0.55;;;14.70;75.30;;;;;;5068799;28;20079;-68
2022/09/16 06:38:58;;;;;;;0.40;0.40;;;14.70;75.40;;;;;;5078845;28;20030;-69
2022/09/16 06:41:24;;;;;;;2.45;0.63;;;14.60;75.50;;;;;;5089513;28;20032;-70
2022/09/16 06:43:50;;;;;;;0.82;0.60;;;14.70;75.50;;;;;;5091428;28;20032;-66
2022/09/16 06:46:19;;;;;;;0.52;0.40;;;14.70;75.50;;;;;;5092971;28;20032;-66
2022/09/16 06:48:49;;;;;;;2.45;1.35;;;14.80;75.60;;;;;;5097672;28;20041;-66
2022/09/16 06:51:18;;;;;;;0.30;0.30;;;14.80;75.90;;;;;;5095681;28;20019;-66
2022/09/16 06:53:45;;;;;;;0.95;0.38;;;14.90;75.20;;;;;;5093833;28;20059;-66
2022/09/16 06:56:14;;;;;;;1.20;0.40;;;15.00;75.10;;;;;;5088880;28;20121;-66
2022/09/16 06:58:41;;;;;;;0.40;0.40;;;15.00;74.80;;;;;;5080531;28;20032;-68
2022/09/16 07:01:12;;;;;;;0.20;0.20;;;15.10;74.70;;;;;;5088439;28;20036;-65
2022/09/16 07:03:45;;;;;;;0.63;0.63;;;15.10;74.60;;;;;;5094258;28;20052;-66
2022/09/16 07:06:13;;;;;;;0.73;0.35;;;15.20;74.60;;;;;;5077607;28;20411;-67
2022/09/16 07:08:39;;;;;;;0.30;0.30;;;15.20;74.50;;;;;;5085799;28;20479;-67
2022/09/16 07:11:11;;;;;;;0.73;0.43;;;15.30;74.40;;;;;;5088372;28;20027;-67
2022/09/16 07:13:38;;;;;;;2.45;0.50;;;15.30;74.50;;;;;;5086099;28;20085;-67
2022/09/16 07:16:09;;;;;;;0.57;0.43;;;15.20;74.50;;;;;;5080890;28;20166;-64
2022/09/16 07:18:36;;;;;;;0.30;0.30;;;15.30;74.70;;;;;;5085749;28;20107;-65
2022/09/16 07:21:03;;;;;;;3.15;0.70;;;15.40;74.60;;;;;;5079872;28;20169;-67
2022/09/16 07:23:34;;;;;;;0.40;0.40;;;15.40;74.50;;;;;;5080464;28;20047;-66
2022/09/16 07:26:06;;;;;;;0.75;0.40;;;15.50;74.40;;;;;;5081447;28;20027;-66
2022/09/16 07:28:33;;;;;;;1.35;0.52;;;15.70;74.30;;;;;;5087802;28;20039;-66
2022/09/16 07:31:04;;;;;;;0.28;0.22;;;15.80;73.70;;;;;;5088065;28;20547;-66
2022/09/16 07:33:31;;;;;;;1.35;0.63;;;15.80;73.30;;;;;;5088726;28;20387;-68
2022/09/16 07:35:59;;;;;;;0.88;0.50;;;15.80;73.40;;;;;;5078174;28;20028;-67
2022/09/16 07:38:25;;;;;;;1.73;0.63;;;15.80;73.20;;;;;;5094105;28;20103;-66
2022/09/16 07:40:50;;;;;;;0.40;0.30;;;15.80;73.30;;;;;;5086395;28;20032;-65
2022/09/16 07:43:16;;;;;;;1.08;0.45;;;15.80;73.40;;;;;;5085162;28;20028;-65
2022/09/16 07:45:42;;;;;;;4.05;0.80;;;15.80;73.60;;;;;;5078661;28;20029;-64
2022/09/16 07:48:08;;;;;;;2.00;0.80;;;15.80;73.70;;;;;;5073982;28;20036;-65
2022/09/16 07:50:34;;;;;;;1.75;0.63;;;15.80;73.80;;;;;;5081433;28;20487;-65
2022/09/16 07:52:59;;;;;;;1.50;0.40;;;15.80;73.80;;;;;;5095197;28;20079;-65
2022/09/16 07:55:26;;;;;;;2.53;1.08;;;15.90;73.90;;;;;;5103081;28;20036;-65
2022/09/16 07:57:52;;;;;;;1.67;0.60;;;16.00;73.80;;;;;;5085409;28;20086;-65
2022/09/16 08:00:18;;;;;;;0.85;0.70;;;15.90;72.90;;;;;;5072169;28;20028;-65
2022/09/16 08:02:43;;;;;;;0.93;0.30;;;16.00;72.80;;;;;;5071035;28;20027;-65
2022/09/16 08:05:09;;;;;;;0.82;0.40;;;16.10;72.40;;;;;;5091186;28;20408;-65
2022/09/16 08:07:35;;;;;;;0.73;0.60;;;16.20;71.70;;;;;;5079267;28;20043;-65
2022/09/16 08:10:02;;;;;;;1.15;0.60;;;16.30;70.60;;;;;;5072134;28;20097;-65
2022/09/16 08:12:31;;;;;;;0.13;0.13;;;16.40;69.70;;;;;;5075404;28;20060;-65
2022/09/16 08:14:58;;;;;;;1.05;0.52;;;16.40;68.90;;;;;;5070864;28;20039;-65
2022/09/16 08:17:24;;;;;;;0.95;0.30;;;16.40;68.70;;;;;;5085288;28;20454;-65
2022/09/16 08:19:50;;;;;;;1.40;0.38;;;16.40;68.40;;;;;;5070766;28;20477;-69
2022/09/16 08:22:16;;;;;;;0.50;0.38;;;16.40;67.50;;;;;;5070170;28;20027;-70
2022/09/16 08:24:41;;;;;;;0.20;0.20;;;16.40;66.80;;;;;;5080842;28;20044;-65
2022/09/16 08:27:07;;;;;;;0.63;0.60;;;16.40;66.60;;;;;;5074292;28;20471;-65
2022/09/16 08:29:33;;;;;;;0.32;0.20;;;16.50;67.00;;;;;;5083899;28;20120;-65
2022/09/16 08:31:58;;;;;;;1.80;0.40;;;16.50;66.50;;;;;;5078818;28;20052;-65
2022/09/16 08:34:24;;;;;;;0.35;0.30;;;16.60;66.20;;;;;;5071982;28;20052;-69
2022/09/16 08:36:50;;;;;;;1.17;0.70;;;16.70;66.30;;;;;;5078664;28;20028;-65
2022/09/16 08:39:16;;;;;;;1.65;0.50;;;16.80;66.20;;;;;;5086634;28;20372;-65
2022/09/16 08:42:29;;;;;;;0.38;0.35;;;16.90;66.30;;;;;;5086583;28;20387;-65
2022/09/16 08:45:28;;;;;;;0.30;0.30;;;17.00;66.10;;;;;;5086093;28;20043;-65
2022/09/16 08:48:03;;;;;;;0.73;0.65;;;17.10;65.80;;;;;;5084644;28;20047;-65
2022/09/16 08:50:33;;;;;;;2.67;0.57;;;17.20;65.90;;;;;;5086748;28;20112;-65
2022/09/16 08:53:02;;;;;;;6.28;0.47;;;17.40;65.80;;;;;;5083301;28;20051;-65
2022/09/16 08:55:39;;;;;;;2.20;0.40;;;17.60;64.60;;;;;;5082706;28;20099;-65
2022/09/16 08:58:24;;;;;;;1.45;0.30;;;17.70;64.80;;;;;;5081357;28;20051;-65
2022/09/16 09:00:58;;;;;;;1.30;0.60;;;17.80;63.10;;;;;;5085484;28;20020;-65
2022/09/16 09:03:36;;;;;;;0.60;0.30;;;17.80;63.20;;;;;;5074672;28;20555;-70
2022/09/16 09:06:16;;;;;;;0.30;0.30;;;17.90;63.10;;;;;;5072781;28;20048;-70
2022/09/16 09:09:08;;;;;;;0.85;0.30;;;17.80;62.50;;;;;;5070875;28;20024;-66
2022/09/16 09:11:47;;;;;;;0.52;0.35;;;17.70;62.70;;;;;;5070907;28;20029;-70
2022/09/16 09:14:41;;;;;;;2.33;0.30;;;17.50;62.50;;;;;;5071201;28;20021;-65
2022/09/16 09:17:38;;;;;;;1.50;0.50;;;17.40;62.90;;;;;;5081461;28;20025;-65
2022/09/16 09:20:19;;;;;;;2.38;0.50;;;17.60;61.00;;;;;;5078244;28;20033;-65
2022/09/16 09:23:12;;;;;;;0.90;0.63;;;17.70;59.80;;;;;;5070888;28;20016;-65
2022/09/16 09:26:13;;;;;;;0.30;0.28;;;17.80;59.10;;;;;;5070680;28;20020;-65
2022/09/16 09:29:06;;;;;;;0.55;0.40;;;17.90;58.80;;;;;;5048939;28;20051;-65
2022/09/16 09:31:41;;;;;;;1.58;0.30;;;18.10;58.80;;;;;;5079866;28;20575;-66
2022/09/16 09:34:31;;;;;;;0.22;0.17;;;18.30;58.10;;;;;;5071589;28;20028;-66
2022/09/16 09:37:08;;;;;;;0.52;0.45;;;18.40;57.30;;;;;;5077093;28;20019;-70
2022/09/16 09:39:56;;;;;;;0.75;0.40;;;18.40;57.30;;;;;;5087053;28;20063;-70
2022/09/16 09:42:28;;;;;;;0.30;0.30;;;18.50;57.10;;;;;;5090748;28;20028;-71
2022/09/16 09:45:31;;;;;;;0.28;0.28;;;18.70;57.40;;;;;;5090861;28;20029;-66
2022/09/16 09:48:00;;;;;;;;;;;18.90;56.90;;;;;;5083851;28;20122;-70
2022/09/16 09:50:32;;;;;;;0.22;0.22;;;19.00;55.10;;;;;;5089888;28;19918;-70
2022/09/16 09:53:18;;;;;;;0.75;0.20;;;19.10;54.20;;;;;;5090652;28;20028;-70
2022/09/16 09:55:44;;;;;;;0.20;0.20;;;19.10;53.70;;;;;;5090269;28;20158;-70
2022/09/16 09:58:18;;;;;;;0.47;0.47;;;19.10;54.00;;;;;;5088929;28;20278;-70
2022/09/16 10:00:44;;;;;;;0.65;0.47;;;19.30;52.40;;;;;;5090547;28;20028;-70
2022/09/16 10:03:16;;;;;;;0.50;0.30;;;19.30;52.70;;;;;;5090389;28;20219;-70
2022/09/16 10:05:42;;;;;;;2.50;0.63;;;19.20;52.40;;;;;;5087829;28;20031;-66
2022/09/16 10:08:29;;;;;;;0.45;0.45;;;19.20;52.50;;;;;;5070848;28;20059;-66
2022/09/16 10:11:13;;;;;;;1.35;0.68;;;19.20;52.10;;;;;;5070278;28;20059;-66
2022/09/16 10:13:51;;;;;;;0.47;0.47;;;19.20;53.00;;;;;;5098390;28;20119;-66
2022/09/16 10:16:20;;;;;;;2.90;0.52;;;19.40;52.80;;;;;;5081260;28;20048;-70
2022/09/16 10:19:00;;;;;;;1.20;0.65;;;19.50;52.80;;;;;;5079127;28;20166;-70
2022/09/16 10:21:52;;;;;;;2.72;0.50;;;19.60;52.60;;;;;;5077248;28;20529;-70
2022/09/16 10:24:36;;;;;;;0.50;0.27;;;19.60;52.00;;;;;;5072011;28;20020;-70
2022/09/16 10:27:28;;;;;;;0.45;0.20;;;19.70;52.80;;;;;;5082636;28;20495;-70
2022/09/16 10:30:16;;;;;;;0.33;0.33;;;20.00;52.20;;;;;;5080391;28;20410;-70
2022/09/16 10:32:58;;;;;;;0.20;0.20;;;20.10;51.00;;;;;;5083954;28;20016;-70
2022/09/16 10:35:29;;;;;;;0.30;0.30;;;20.20;51.60;;;;;;5074957;28;20024;-66
2022/09/16 10:38:02;;;;;;;1.77;0.43;;;20.50;51.50;;;;;;5073672;28;20024;-66
2022/09/16 10:40:28;;;;;;;0.85;0.22;;;20.60;51.60;;;;;;5082731;28;20304;-66
2022/09/16 10:43:00;;;;;;;0.30;0.30;;;20.50;50.90;;;;;;5082438;28;20457;-66
2022/09/16 10:45:28;;;;;;;1.70;0.25;;;20.50;50.20;;;;;;5085463;28;20063;-66
2022/09/16 10:47:58;;;;;;;0.30;0.30;;;20.40;49.80;;;;;;5081890;28;20485;-66
2022/09/16 10:50:25;;;;;;;1.10;0.30;;;20.50;50.10;;;;;;5082342;28;20027;-66
2022/09/16 10:52:51;;;;;;;0.32;0.32;;;20.40;48.90;;;;;;5074903;28;20035;-66
2022/09/16 10:55:26;;;;;;;0.40;0.30;;;20.30;48.70;;;;;;5068468;28;20122;-66
2022/09/16 10:57:54;;;;;;;0.75;0.40;;;20.20;48.40;;;;;;5083896;28;20083;-69
2022/09/16 11:00:27;;;;;;;0.20;0.20;;;20.10;48.50;;;;;;5069432;28;20093;-69
2022/09/16 11:03:21;;;;;;;3.22;0.63;;;20.00;47.90;;;;;;5077043;28;20043;-69
2022/09/16 11:06:19;;;;;;;0.47;0.40;;;20.20;48.80;;;;;;5074561;28;20024;-70
2022/09/16 11:09:09;;;;;;;0.45;0.45;;;20.40;49.20;;;;;;5063994;28;20044;-66
2022/09/16 11:11:55;;;;;;;0.70;0.50;;;20.60;49.70;;;;;;5075433;28;20031;-65
2022/09/16 11:14:32;;;;;;;2.70;0.60;;;20.80;48.80;;;;;;5083685;28;20039;-66
2022/09/16 11:17:10;;;;;;;6.85;0.47;;;20.90;49.00;;;;;;5073055;28;20063;-70
2022/09/16 11:20:11;;;;;;;0.38;0.25;;;21.00;49.00;;;;;;5074806;28;20058;-70
2022/09/16 11:23:05;;;;;;;0.30;0.30;;;20.80;48.70;;;;;;5062149;28;20036;-70
2022/09/16 11:25:59;;;;;;;1.35;0.30;;;20.20;49.50;;;;;;5067828;28;20161;-70
2022/09/16 11:28:41;;;;;;;1.45;0.20;;;19.70;49.80;;;;;;5083659;28;20550;-66
2022/09/16 11:31:44;;;;;;;0.65;0.20;;;19.70;50.40;;;;;;5068351;28;20460;-70
2022/09/16 11:34:29;;;;;;;1.45;0.50;;;20.00;50.20;;;;;;5082673;28;20387;-66
2022/09/16 11:37:04;;;;;;;0.35;0.20;;;20.40;49.50;;;;;;5079330;28;20499;-65
2022/09/16 11:39:30;;;;;;;2.25;0.82;;;20.70;47.60;;;;;;5073626;28;20062;-66
2022/09/16 11:42:26;;;;;;;0.30;0.30;;;20.60;47.60;;;;;;5071194;28;20423;-65
2022/09/16 11:45:20;;;;;;;0.25;0.25;;;20.50;47.90;;;;;;5070748;28;20063;-63
2022/09/16 11:47:55;;;;;;;0.22;0.22;;;20.60;47.30;;;;;;5078806;28;20036;-66
2022/09/16 11:50:21;;;;;;;0.20;0.20;;;20.80;46.00;;;;;;5083912;28;20063;-64
2022/09/16 11:53:01;;;;;;;0.40;0.40;;;20.80;45.80;;;;;;5075226;28;20494;-65
2022/09/16 11:55:50;;;;;;;1.85;0.50;;;20.90;46.20;;;;;;5070533;28;20032;-68
2022/09/16 11:58:44;;;;;;;0.55;0.52;;;21.30;46.10;;;;;;5074821;28;20362;-65
2022/09/16 12:01:21;;;;;;;0.82;0.30;;;21.30;45.30;;;;;;5078136;28;20055;-65
2022/09/16 12:03:54;;;;;;;0.85;0.35;;;20.90;44.20;;;;;;5089566;28;20045;-65
2022/09/16 12:06:24;;;;;;;0.40;0.40;;;20.50;45.00;;;;;;5078463;28;20043;-64
2022/09/16 12:09:16;;;;;;;1.05;0.45;;;20.40;45.80;;;;;;5074390;28;20433;-65
2022/09/16 12:11:44;;;;;;;1.13;1.03;;;20.60;44.90;;;;;;5082089;28;20466;-65
2022/09/16 12:14:24;;;;;;;1.75;0.47;;;20.90;44.20;;;;;;5079849;28;20078;-65
2022/09/16 12:17:17;;;;;;;1.75;0.63;;;21.40;43.20;;;;;;5070838;28;20103;-65
2022/09/16 12:19:57;;;;;;;5.28;0.68;;;21.60;41.90;;;;;;5070964;28;20025;-65
2022/09/16 12:22:39;;;;;;;0.60;0.47;;;21.90;41.50;;;;;;5075275;28;20077;-65
2022/09/16 12:25:17;;;;;;;2.83;0.40;;;22.00;41.80;;;;;;5068475;28;20032;-65
2022/09/16 12:28:11;;;;;;;1.02;0.40;;;22.30;41.80;;;;;;5073926;28;20078;-65
2022/09/16 12:30:41;;;;;;;0.93;0.55;;;22.50;40.80;;;;;;5066780;28;20620;-65
2022/09/16 12:33:20;;;;;;;4.78;0.60;;;22.30;40.60;;;;;;5069121;28;20017;-65
2022/09/16 12:36:02;;;;;;;2.83;1.33;;;22.30;40.70;;;;;;5076650;28;20510;-65
2022/09/16 12:38:27;;;;;;;4.10;0.77;;;21.90;40.70;;;;;;5086097;28;20024;-69
2022/09/16 12:41:26;;;;;;;0.73;0.50;;;21.70;41.50;;;;;;5080469;28;20047;-69
2022/09/16 12:44:16;;;;;;;2.10;0.95;;;21.80;41.90;;;;;;5071840;28;20029;-69
2022/09/16 12:47:00;;;;;;;1.33;0.95;;;22.00;42.00;;;;;;5079536;28;20513;-69
2022/09/16 12:49:37;;;;;;;1.95;0.80;;;21.90;42.30;;;;;;5071059;28;20028;-69
2022/09/16 12:52:05;;;;;;;0.50;0.40;;;21.80;43.30;;;;;;5068659;28;20054;-69
2022/09/16 12:54:43;;;;;;;4.95;1.95;;;21.70;44.10;;;;;;5070883;28;20472;-64
2022/09/16 12:57:33;;;;;;;0.98;0.40;;;21.80;45.20;;;;;;5071740;28;20028;-65
2022/09/16 13:00:14;;;;;;;1.38;0.40;;;21.90;45.60;;;;;;5075064;28;20093;-65
2022/09/16 13:02:53;;;;;;;3.03;0.63;;;22.20;46.10;;;;;;5072215;28;20104;-65
2022/09/16 13:05:29;;;;;;;1.65;0.93;;;22.00;45.70;;;;;;5072126;28;20028;-70
2022/09/16 13:08:01;;;;;;;0.70;0.60;;;21.90;45.60;;;;;;5078849;28;20404;-69
2022/09/16 13:10:39;;;;;;;0.50;0.50;;;21.80;46.00;;;;;;5075975;28;20471;-68
2022/09/16 13:13:06;;;;;;;1.27;0.65;;;22.00;46.00;;;;;;5070063;28;20035;-68
2022/09/16 13:15:34;;;;;;;0.40;0.30;;;22.10;45.70;;;;;;5082639;28;20263;-69
2022/09/16 13:18:15;;;;;;;5.47;1.10;;;22.00;45.90;;;;;;5089189;28;20135;-69
2022/09/16 13:20:49;;;;;;;0.52;0.52;;;22.20;46.20;;;;;;5070727;28;20090;-68